Monday, November 20, 2017, 1:58 PM EST
Back to Local

KITH, Ithaca, Ithaca Tompkins Regional Airport

Location: Ithaca, NY, United States Lat: 42.491
Local Time: 1:58 PM EST (18:58 GMT) Lon: -76.458
Time Zone: US/Eastern Elev: 1099 ft

Show me the last for .
Show Decoded

2017-11-20 12:56 METAR KITH 201756Z 27009KT 10SM -SN OVC025 01/M03 A2996 RMK AO2 SLP158 P0000
                 60000 T00111033 10011 21011 58006 =
2017-11-20 11:56 METAR KITH 201656Z 25010KT 10SM -SN OVC027 01/M04 A2997 RMK AO2 UPB11E20SNE11B20
                 SLP159 P0000 T00061039 =
2017-11-20 10:56 METAR KITH 201556Z 25011KT 10SM -SN OVC029 00/M04 A2998 RMK AO2 UPB29E32SNB32
                 SLP164 P0000 T00001044 =
2017-11-20 09:56 METAR KITH 201456Z 27006KT 10SM OVC033 00/M06 A2998 RMK AO2 SLP164 60000
                 T00001056 50013 =
2017-11-20 08:56 METAR KITH 201356Z 27010G19KT 10SM BKN034 M01/M06 A2999 RMK AO2 SLP166 T10061056
                 =
2017-11-20 07:56 METAR KITH 201256Z 26012KT 10SM BKN041 M01/M06 A2997 RMK AO2 SNB19E34 SLP160
                 P0000 T10111061 =
2017-11-20 06:56 METAR KITH 201156Z 27013G21KT 10SM BKN047 M01/M06 A2994 RMK AO2 SLP151 60000
                 T10111056 11011 21028 52022 =
2017-11-20 06:30 METAR KITH 201130Z 26018G23KT 10SM BKN050 M02/M06 A2992 RMK AO2 =
2017-11-20 05:56 METAR KITH 201056Z AUTO 27017G22KT 10SM OVC050 M01/M06 A2992 RMK AO2 SLP142
                 T10111061 =
2017-11-20 04:56 METAR KITH 200956Z AUTO 29011KT 10SM OVC055 M01/M06 A2990 RMK AO2 SLP135
                 T10111061 =
2017-11-20 03:56 METAR KITH 200856Z AUTO 28006KT 10SM OVC060 M02/M06 A2987 RMK AO2 SLP127 60000
                 T10171061 53006 =
2017-11-20 02:56 METAR KITH 200756Z AUTO 26006KT 10SM OVC065 M02/M04 A2987 RMK AO2 SNE02 SLP124
                 P0000 T10221044 =
2017-11-20 01:56 METAR KITH 200656Z AUTO 27008KT 9SM -SN FEW007 BKN038 OVC065 M03/M04 A2986 RMK
                 AO2 SNB00 SLP121 P0000 T10281039 =
2017-11-20 01:46 METAR KITH 200646Z AUTO 30009G19KT 2SM R32/3500VP6000FT -SN BR FEW007 BKN020
                 OVC027 M03/M04 A2985 RMK AO2 VIS 1 1/4V5 SNB00 P0000 =
2017-11-20 01:44 METAR KITH 200644Z AUTO 29010G19KT 1 3/4SM R32/3500VP6000FT -SN BR FEW007 BKN013
                 OVC027 M02/M04 A2984 RMK AO2 VIS 1 1/4V4 SNB00 P0000 =
2017-11-20 00:56 METAR KITH 200556Z AUTO 31010KT 10SM BKN027 BKN032 OVC060 M02/M06 A2983 RMK AO2
                 SLP114 60000 T10171056 10000 21017 51015 =
2017-11-20 00:52 METAR KITH 200552Z AUTO 31010KT 10SM SCT027 BKN049 OVC060 M02/M06 A2983 RMK AO2
                 =
2017-11-20 00:37 METAR KITH 200537Z AUTO 32010KT 10SM BKN027 OVC060 M02/M06 A2983 RMK AO2 =
2017-11-19 23:56 METAR KITH 200456Z AUTO 31013KT 10SM FEW029 OVC060 M02/M06 A2982 RMK AO2 SNE27
                 SLP108 P0000 T10171061 =
2017-11-19 23:18 METAR KITH 200418Z AUTO 31016G23KT 9SM -SN FEW028 OVC034 M01/M06 A2980 RMK AO2
                 P0000 =
2017-11-19 22:56 METAR KITH 200356Z AUTO 31016G20KT 9SM -SN BKN028 BKN036 OVC044 M01/M05 A2979
                 RMK AO2 PK WND 29026/0317 SNB51 SLP098 P0000 T10111050 401001011 =
2017-11-19 22:06 METAR KITH 200306Z AUTO 28017G25KT 10SM BKN032 BKN039 OVC075 M01/M04 A2978 RMK
                 AO2 =
2017-11-19 21:56 METAR KITH 200256Z 29018G24KT 10SM BKN027 BKN034 OVC075 M01/M04 A2977 RMK AO2
                 SLP092 60000 T10061044 52022 =
2017-11-19 20:56 METAR KITH 200156Z 28013KT 10SM FEW025 OVC070 M01/M03 A2975 RMK AO2 SLP084
                 T10061033 =
2017-11-19 19:56 METAR KITH 200056Z 29017KT 10SM BKN016 OVC090 00/M02 A2973 RMK AO2 SNE21 SLP076
                 P0000 T00001022 =
2017-11-19 18:56 METAR KITH 192356Z 28012G19KT 2SM R32/4500VP6000FT -SN BR BKN008 OVC026 00/M01
                 A2970 RMK AO2 RAB34E37 SLP068 P0000 60000 T00001006 10022 20000 53020 =
2017-11-19 18:53 METAR KITH 192353Z 29014KT 2SM R32/4500VP6000FT -SN BR BKN008 OVC026 00/M01
                 A2970 RMK AO2 RAB34E37 P0000 =
2017-11-19 17:56 METAR KITH 192256Z 28010KT 4SM -SN BR SCT021 OVC034 01/M02 A2968 RMK AO2 SLP059
                 P0000 T00061017 =
2017-11-19 16:56 METAR KITH 192156Z 29011G19KT 10SM -SN BKN029 OVC038 02/M02 A2966 RMK AO2
                 RAB48E50SNB50 SLP051 P0000 T00171022 =
2017-11-19 15:56 METAR KITH 192056Z 30009G15KT 10SM BKN029 OVC045 02/M03 A2964 RMK AO2 SLP042
                 60000 T00221028 53017 =
2017-11-19 14:56 METAR KITH 191956Z 30013G21KT 10SM BKN020 OVC036 02/M03 A2962 RMK AO2 SNE1857
                 SLP035 T00221033 =

Support USWX by starting your Amazon purchase here.